createdAt,value
2022-11-19T00:01:37.548Z,30.97
2022-11-19T00:04:07.753Z,30.17
2022-11-19T00:06:43.315Z,33.57
2022-11-19T00:09:14.260Z,29.27
2022-11-19T00:11:59.575Z,29.60
2022-11-19T00:14:26.281Z,31.20
2022-11-19T00:16:52.940Z,31.97
2022-11-19T00:19:19.779Z,34.57
2022-11-19T00:21:46.617Z,28.50
2022-11-19T00:24:22.615Z,31.33
2022-11-19T00:26:49.254Z,29.50
2022-11-19T00:29:18.148Z,28.03
2022-11-19T00:31:45.026Z,31.20
2022-11-19T00:34:12.187Z,34.97
2022-11-19T00:36:38.842Z,34.10
2022-11-19T00:39:05.638Z,30.17
2022-11-19T00:41:34.445Z,28.73
2022-11-19T00:44:01.064Z,34.67
2022-11-19T00:46:30.351Z,28.53
2022-11-19T00:48:58.794Z,28.30
2022-11-19T00:51:27.973Z,24.80
2022-11-19T00:54:00.587Z,29.87
2022-11-19T00:56:27.817Z,26.03
2022-11-19T00:58:54.894Z,27.90
2022-11-19T01:01:23.879Z,29.00
2022-11-19T01:03:50.697Z,24.97
2022-11-19T01:06:19.824Z,26.57
2022-11-19T01:08:51.110Z,28.03
2022-11-19T01:11:20.885Z,27.53
2022-11-19T01:13:47.689Z,27.97
2022-11-19T01:16:20.055Z,27.60
2022-11-19T01:18:48.601Z,31.77
2022-11-19T01:21:20.199Z,28.50
2022-11-19T01:23:47.182Z,31.00
2022-11-19T01:26:15.018Z,28.60
2022-11-19T01:28:42.219Z,25.37
2022-11-19T01:31:10.701Z,23.80
2022-11-19T01:33:38.166Z,26.30
2022-11-19T01:36:07.504Z,25.07
2022-11-19T01:38:34.525Z,28.27
2022-11-19T01:41:01.254Z,27.07
2022-11-19T01:43:48.395Z,26.53
2022-11-19T01:46:23.175Z,27.47
2022-11-19T01:48:54.063Z,27.43
2022-11-19T01:51:35.609Z,24.20
2022-11-19T01:54:07.958Z,24.20
2022-11-19T01:56:35.641Z,29.93
2022-11-19T01:59:14.801Z,30.97
2022-11-19T02:01:44.099Z,28.03
2022-11-19T02:04:11.353Z,25.20
2022-11-19T02:06:38.033Z,26.20
2022-11-19T02:09:04.728Z,24.27
2022-11-19T02:11:37.546Z,29.03
2022-11-19T02:14:36.519Z,29.63
2022-11-19T02:17:24.486Z,25.53
2022-11-19T02:20:16.005Z,33.00
2022-11-19T02:22:54.658Z,29.27
2022-11-19T02:25:28.474Z,27.80
2022-11-19T02:28:04.033Z,28.90
2022-11-19T02:30:36.855Z,27.37
2022-11-19T02:33:25.720Z,24.77
2022-11-19T02:36:10.574Z,29.27
2022-11-19T02:38:39.719Z,31.97
2022-11-19T02:41:37.353Z,32.50
2022-11-19T02:44:31.874Z,26.63
2022-11-19T02:47:01.678Z,24.87
2022-11-19T02:49:30.774Z,27.13
2022-11-19T02:51:57.894Z,29.40
2022-11-19T02:54:26.574Z,28.07
2022-11-19T02:56:59.001Z,26.57
2022-11-19T02:59:54.267Z,27.87
2022-11-19T03:02:40.418Z,31.17
2022-11-19T03:05:09.636Z,22.80
2022-11-19T03:07:36.347Z,26.90
2022-11-19T03:10:06.011Z,25.87
2022-11-19T03:12:46.480Z,27.43
2022-11-19T03:15:46.606Z,25.73
2022-11-19T03:18:20.099Z,28.13
2022-11-19T03:21:10.163Z,27.53
2022-11-19T03:23:42.679Z,28.10
2022-11-19T03:26:24.303Z,27.50
2022-11-19T03:28:51.698Z,22.93
2022-11-19T03:31:20.146Z,27.70
2022-11-19T03:33:51.823Z,25.70
2022-11-19T03:36:30.642Z,26.40
2022-11-19T03:39:00.689Z,25.00
2022-11-19T03:41:27.885Z,28.33
2022-11-19T03:43:58.466Z,23.70
2022-11-19T03:46:26.466Z,24.50
2022-11-19T03:48:54.813Z,27.70
2022-11-19T03:51:41.847Z,25.03
2022-11-19T03:54:08.844Z,25.43
2022-11-19T03:56:38.078Z,27.70
2022-11-19T03:59:11.517Z,27.50
2022-11-19T04:01:38.626Z,24.97
2022-11-19T04:04:26.302Z,24.57
2022-11-19T04:06:52.862Z,23.57
2022-11-19T04:09:19.607Z,26.73
2022-11-19T04:14:13.942Z,28.70
2022-11-19T04:16:40.692Z,26.57
2022-11-19T04:19:07.244Z,26.17
2022-11-19T04:21:33.880Z,23.97
2022-11-19T04:24:09.676Z,26.50
2022-11-19T04:26:43.956Z,25.00
2022-11-19T04:29:18.414Z,25.10
2022-11-19T04:31:45.303Z,26.20
2022-11-19T04:34:12.021Z,26.97
2022-11-19T04:36:40.311Z,27.03
2022-11-19T04:39:07.328Z,25.60
2022-11-19T04:41:37.340Z,30.67
2022-11-19T04:44:04.187Z,24.20
2022-11-19T04:46:31.158Z,28.83
2022-11-19T04:48:59.276Z,26.50
2022-11-19T04:51:25.925Z,24.60
2022-11-19T04:53:53.087Z,28.90
2022-11-19T04:56:19.721Z,27.87
2022-11-19T04:58:46.319Z,27.03
2022-11-19T05:01:12.916Z,24.17
2022-11-19T05:03:39.516Z,21.67
2022-11-19T05:06:07.487Z,24.30
2022-11-19T05:08:34.181Z,25.10
2022-11-19T05:11:00.733Z,28.03
2022-11-19T05:13:27.257Z,25.60
2022-11-19T05:15:53.852Z,29.13
2022-11-19T05:18:20.513Z,25.97
2022-11-19T05:20:47.746Z,24.87
2022-11-19T05:23:15.769Z,25.23
2022-11-19T05:25:44.530Z,26.67
2022-11-19T05:28:32.854Z,25.53
2022-11-19T05:31:07.788Z,24.27
2022-11-19T05:33:34.813Z,26.10
2022-11-19T05:36:02.349Z,27.40
2022-11-19T05:38:29.140Z,22.87
2022-11-19T05:40:57.743Z,24.27
2022-11-19T05:43:24.387Z,23.60
2022-11-19T05:45:50.971Z,28.07
2022-11-19T05:48:17.580Z,28.80
2022-11-19T05:50:44.201Z,22.57
2022-11-19T05:53:17.446Z,25.10
2022-11-19T05:55:51.309Z,22.40
2022-11-19T05:58:17.970Z,27.63
2022-11-19T06:00:47.322Z,23.40
2022-11-19T06:03:15.532Z,26.40
2022-11-19T06:05:42.106Z,24.07
2022-11-19T06:08:08.715Z,28.57
2022-11-19T06:10:35.377Z,27.27
2022-11-19T06:13:03.946Z,23.13
2022-11-19T06:15:33.539Z,25.77
2022-11-19T06:18:00.291Z,23.60
2022-11-19T06:20:26.910Z,26.83
2022-11-19T06:22:53.685Z,22.73
2022-11-19T06:25:23.268Z,24.27
2022-11-19T06:27:50.047Z,19.50
2022-11-19T06:30:17.201Z,26.30
2022-11-19T06:32:43.912Z,27.60
2022-11-19T06:35:10.639Z,23.20
2022-11-19T06:37:44.915Z,22.33
2022-11-19T06:40:12.264Z,25.83
2022-11-19T06:42:38.924Z,24.87
2022-11-19T06:45:11.580Z,28.63
2022-11-19T06:47:39.289Z,24.50
2022-11-19T06:50:07.588Z,26.13
2022-11-19T06:52:34.205Z,23.57
2022-11-19T06:55:00.980Z,28.80
2022-11-19T06:57:30.105Z,25.10
2022-11-19T06:59:56.956Z,21.10
2022-11-19T07:02:27.949Z,23.63
2022-11-19T07:04:54.595Z,25.40
2022-11-19T07:07:25.704Z,24.40
2022-11-19T07:09:52.323Z,24.03
2022-11-19T07:12:18.944Z,24.97
2022-11-19T07:14:45.554Z,23.30
2022-11-19T07:17:12.199Z,26.27
2022-11-19T07:19:38.814Z,23.43
2022-11-19T07:22:08.473Z,23.47
2022-11-19T07:24:35.699Z,24.87
2022-11-19T07:27:02.328Z,23.40
2022-11-19T07:29:28.919Z,23.30
2022-11-19T07:31:55.569Z,23.57
2022-11-19T07:34:24.735Z,23.20
2022-11-19T07:36:51.373Z,21.87
2022-11-19T07:39:18.584Z,19.23
2022-11-19T07:42:19.016Z,29.23
2022-11-19T07:44:54.785Z,20.63
2022-11-19T07:47:23.958Z,20.97
2022-11-19T07:49:55.357Z,20.47
2022-11-19T07:52:22.119Z,24.23
2022-11-19T07:54:50.647Z,22.47
2022-11-19T07:57:17.266Z,25.80
2022-11-19T07:59:43.946Z,25.47
2022-11-19T08:02:12.014Z,24.43
2022-11-19T08:04:38.880Z,24.27
2022-11-19T08:07:05.765Z,24.57
2022-11-19T08:09:32.635Z,22.90
2022-11-19T08:11:59.266Z,25.23
2022-11-19T08:14:25.903Z,22.20
2022-11-19T08:17:15.639Z,26.07
2022-11-19T08:19:42.252Z,24.40
2022-11-19T08:22:18.640Z,21.07
2022-11-19T08:24:45.297Z,21.10
2022-11-19T08:27:12.910Z,24.63
2022-11-19T08:29:39.461Z,22.60
2022-11-19T08:32:08.382Z,21.83
2022-11-19T08:34:35.008Z,19.47
2022-11-19T08:37:01.629Z,23.67
2022-11-19T08:39:28.212Z,21.57
2022-11-19T08:42:13.447Z,23.70
2022-11-19T08:44:40.140Z,20.23
2022-11-19T08:47:06.844Z,26.43
2022-11-19T08:49:35.843Z,20.63
2022-11-19T08:52:02.541Z,21.03
2022-11-19T08:54:29.282Z,17.27
2022-11-19T08:56:56.028Z,22.40
2022-11-19T08:59:22.857Z,20.73
2022-11-19T09:01:50.457Z,23.17
2022-11-19T09:04:17.489Z,17.67
2022-11-19T09:06:44.357Z,21.30
2022-11-19T09:09:10.976Z,21.70
2022-11-19T09:11:42.711Z,22.30
2022-11-19T09:14:09.917Z,26.77
2022-11-19T09:16:36.727Z,22.30
2022-11-19T09:19:03.317Z,20.13
2022-11-19T09:21:30.102Z,18.97
2022-11-19T09:23:56.769Z,20.53
2022-11-19T09:26:23.381Z,22.43
2022-11-19T09:28:52.292Z,19.80
2022-11-19T09:31:20.332Z,19.37
2022-11-19T09:33:50.226Z,22.00
2022-11-19T09:36:18.364Z,22.90
2022-11-19T09:38:48.383Z,42.73
2022-11-19T09:41:18.155Z,32.20
2022-11-19T09:44:15.497Z,40.93
2022-11-19T09:47:03.616Z,36.80
2022-11-19T09:50:07.715Z,45.83
2022-11-19T09:52:36.443Z,30.63
2022-11-19T09:55:03.473Z,23.00
2022-11-19T09:57:56.554Z,33.30
2022-11-19T10:00:26.290Z,36.70
2022-11-19T10:02:53.656Z,39.23
2022-11-19T10:05:29.512Z,45.23
2022-11-19T10:08:36.775Z,29.00
2022-11-19T10:11:37.420Z,19.77
2022-11-19T10:14:05.108Z,21.50
2022-11-19T10:16:53.192Z,18.67
2022-11-19T10:19:57.014Z,20.60
2022-11-19T10:22:39.914Z,19.47
2022-11-19T10:25:16.754Z,17.90
2022-11-19T10:27:56.854Z,19.83
2022-11-19T10:30:25.665Z,19.00
2022-11-19T10:33:18.775Z,19.17
2022-11-19T10:35:52.786Z,20.03
2022-11-19T10:38:50.951Z,17.07
2022-11-19T10:41:47.790Z,19.67
2022-11-19T10:44:40.978Z,20.10
2022-11-19T10:47:16.762Z,23.83
2022-11-19T10:49:44.014Z,19.37
2022-11-19T10:52:35.652Z,15.30
2022-11-19T10:55:20.951Z,20.80
2022-11-19T10:57:48.968Z,16.00
2022-11-19T11:00:17.347Z,13.27
2022-11-19T11:02:52.416Z,19.50
2022-11-19T11:05:19.609Z,16.77
2022-11-19T11:07:50.504Z,16.43
2022-11-19T11:10:44.229Z,16.73
2022-11-19T11:13:35.812Z,20.23
2022-11-19T11:16:07.640Z,17.60
2022-11-19T11:18:35.548Z,18.83
2022-11-19T11:21:02.422Z,16.97
2022-11-19T11:23:30.430Z,17.93
2022-11-19T11:26:07.211Z,13.97
2022-11-19T11:28:34.465Z,17.17
2022-11-19T11:31:05.854Z,18.10
2022-11-19T11:33:35.481Z,18.93
2022-11-19T11:36:06.356Z,18.23
2022-11-19T11:38:40.445Z,19.03
2022-11-19T11:42:02.010Z,16.17
2022-11-19T11:44:02.856Z,15.87
2022-11-19T11:46:40.123Z,17.50
2022-11-19T11:49:12.565Z,18.40
2022-11-19T11:51:42.098Z,19.27
2022-11-19T11:54:20.026Z,17.03
2022-11-19T11:56:47.086Z,20.07
2022-11-19T11:59:15.944Z,17.97
2022-11-19T12:01:43.138Z,16.83
2022-11-19T12:04:12.786Z,19.13
2022-11-19T12:07:06.288Z,19.60
2022-11-19T12:10:05.531Z,18.80
2022-11-19T12:13:01.444Z,18.97
2022-11-19T12:15:56.815Z,22.43
2022-11-19T12:18:48.322Z,15.57
2022-11-19T12:21:31.316Z,18.00
2022-11-19T12:24:25.705Z,15.40
2022-11-19T12:27:02.837Z,18.30
2022-11-19T12:29:50.335Z,15.40
2022-11-19T12:32:38.524Z,14.57
2022-11-19T12:35:39.080Z,18.70
2022-11-19T12:38:54.226Z,14.10
2022-11-19T12:41:39.094Z,18.83
2022-11-19T12:44:28.733Z,17.97
2022-11-19T12:47:18.624Z,15.43
2022-11-19T12:49:54.007Z,14.67
2022-11-19T12:52:54.873Z,16.30
2022-11-19T12:55:36.642Z,13.17
2022-11-19T12:58:25.148Z,13.50
2022-11-19T13:00:57.228Z,17.23
2022-11-19T13:03:37.815Z,15.00
2022-11-19T13:06:12.936Z,14.30
2022-11-19T13:08:47.419Z,14.33
2022-11-19T13:11:23.706Z,13.07
2022-11-19T13:13:55.259Z,20.73
2022-11-19T13:16:22.790Z,15.17
2022-11-19T13:18:52.115Z,13.17
2022-11-19T13:21:39.047Z,13.27
2022-11-19T13:24:27.140Z,13.40
2022-11-19T13:26:58.588Z,13.80
2022-11-19T13:29:56.977Z,12.57
2022-11-19T13:32:30.286Z,31.00
2022-11-19T13:34:58.866Z,15.90
2022-11-19T13:37:44.014Z,14.40
2022-11-19T13:40:16.719Z,13.30
2022-11-19T13:43:25.372Z,13.97
2022-11-19T13:46:06.823Z,12.00
2022-11-19T13:48:39.573Z,10.53
2022-11-19T13:51:09.786Z,10.80
2022-11-19T13:53:40.694Z,11.17
2022-11-19T13:56:13.833Z,11.40
2022-11-19T13:58:47.053Z,10.43
2022-11-19T14:01:27.962Z,9.07
2022-11-19T14:04:24.258Z,9.80
2022-11-19T14:07:09.781Z,10.30
2022-11-19T14:09:52.181Z,13.43
2022-11-19T14:12:24.915Z,11.20
2022-11-19T14:15:20.388Z,10.83
2022-11-19T14:18:24.614Z,9.97
2022-11-19T14:21:09.728Z,8.90
2022-11-19T14:23:54.890Z,8.80
2022-11-19T14:26:39.602Z,10.50
2022-11-19T14:29:18.748Z,10.67
2022-11-19T14:32:07.738Z,13.60
2022-11-19T14:35:02.912Z,10.53
2022-11-19T14:37:45.583Z,7.37
2022-11-19T14:40:17.202Z,11.00
2022-11-19T14:43:25.213Z,11.13
2022-11-19T14:46:01.677Z,9.30
2022-11-19T14:48:55.158Z,8.70
2022-11-19T14:51:39.232Z,9.23
2022-11-19T14:54:14.958Z,9.67
2022-11-19T14:56:45.586Z,9.20
2022-11-19T14:59:15.313Z,10.53
2022-11-19T15:02:14.082Z,10.97
2022-11-19T15:05:06.733Z,11.63
2022-11-19T15:07:34.994Z,9.57
2022-11-19T15:10:13.718Z,10.00
2022-11-19T15:12:43.390Z,12.37
2022-11-19T15:15:19.091Z,17.97
2022-11-19T15:18:00.624Z,10.47
2022-11-19T15:20:50.598Z,10.33
2022-11-19T15:23:26.244Z,10.23
2022-11-19T15:26:30.382Z,10.30
2022-11-19T15:29:04.605Z,13.67
2022-11-19T15:31:42.991Z,12.77
2022-11-19T15:34:48.679Z,11.17
2022-11-19T15:37:23.014Z,14.73
2022-11-19T15:39:52.464Z,11.60
2022-11-19T15:42:26.807Z,12.27
2022-11-19T15:44:55.662Z,14.83
2022-11-19T15:47:31.391Z,13.13
2022-11-19T15:49:58.522Z,13.70
2022-11-19T15:52:32.498Z,14.07
2022-11-19T15:55:20.119Z,13.47
2022-11-19T15:57:50.120Z,12.17
2022-11-19T16:00:21.696Z,12.27
2022-11-19T16:02:50.047Z,12.30
2022-11-19T16:05:29.715Z,15.27
2022-11-19T16:07:57.048Z,14.10
2022-11-19T16:10:31.431Z,13.73
2022-11-19T16:13:18.768Z,14.00
2022-11-19T16:16:07.608Z,13.90
2022-11-19T16:18:44.075Z,12.43
2022-11-19T16:21:13.775Z,13.00
2022-11-19T16:24:00.445Z,13.87
2022-11-19T16:26:27.375Z,14.43
2022-11-19T16:28:53.998Z,12.87
2022-11-19T16:31:20.583Z,15.13
2022-11-19T16:33:53.401Z,16.50
2022-11-19T16:36:20.435Z,14.23
2022-11-19T16:38:48.653Z,14.17
2022-11-19T16:41:38.992Z,15.17
2022-11-19T16:44:14.274Z,14.90
2022-11-19T16:46:41.039Z,9.83
2022-11-19T16:49:49.126Z,11.47
2022-11-19T16:52:35.251Z,10.80
2022-11-19T16:55:06.500Z,10.53
2022-11-19T16:57:33.131Z,7.60
2022-11-19T17:00:13.320Z,10.53
2022-11-19T17:02:40.564Z,10.57
2022-11-19T17:05:10.051Z,10.50
2022-11-19T17:07:36.814Z,11.50
2022-11-19T17:10:31.343Z,12.67
2022-11-19T17:12:58.169Z,10.40
2022-11-19T17:15:44.246Z,7.90
2022-11-19T17:18:21.036Z,10.20
2022-11-19T17:20:50.521Z,13.80
2022-11-19T17:23:21.053Z,11.07
2022-11-19T17:26:01.777Z,11.57
2022-11-19T17:28:36.117Z,15.00
2022-11-19T17:31:41.441Z,11.23
2022-11-19T17:34:14.021Z,8.03
2022-11-19T17:36:42.478Z,9.90
2022-11-19T17:39:10.444Z,11.33
2022-11-19T17:41:56.360Z,10.00
2022-11-19T17:44:36.003Z,12.10
2022-11-19T17:47:21.303Z,11.90
2022-11-19T17:49:49.443Z,9.33
2022-11-19T17:52:23.973Z,11.73
2022-11-19T17:54:53.478Z,10.90
2022-11-19T17:57:20.042Z,10.80
2022-11-19T17:59:46.687Z,10.50
2022-11-19T18:02:18.279Z,9.00
2022-11-19T18:04:45.643Z,12.07
2022-11-19T18:07:13.078Z,9.20
2022-11-19T18:09:40.764Z,8.90
2022-11-19T18:12:12.389Z,12.30
2022-11-19T18:14:40.413Z,10.33
2022-11-19T18:17:14.584Z,8.80
2022-11-19T18:19:41.348Z,6.73
2022-11-19T18:22:13.535Z,16.07
2022-11-19T18:24:40.151Z,9.83
2022-11-19T18:27:06.806Z,8.20
2022-11-19T18:29:33.623Z,8.60
2022-11-19T18:32:00.318Z,7.83
2022-11-19T18:34:26.967Z,9.90
2022-11-19T18:36:54.228Z,7.33
2022-11-19T18:39:21.336Z,10.47
2022-11-19T18:41:48.126Z,10.50
2022-11-19T18:44:34.479Z,8.23
2022-11-19T18:47:10.326Z,10.13
2022-11-19T18:49:37.797Z,9.47
2022-11-19T18:52:09.100Z,10.43
2022-11-19T18:54:35.758Z,9.87
2022-11-19T18:57:05.224Z,11.83
2022-11-19T18:59:31.862Z,8.93
2022-11-19T19:01:58.595Z,9.70
2022-11-19T19:04:25.344Z,8.33
2022-11-19T19:06:52.169Z,9.80
2022-11-19T19:09:20.498Z,9.07
2022-11-19T19:12:12.982Z,9.20
2022-11-19T19:14:41.512Z,7.27
2022-11-19T19:17:08.182Z,10.80
2022-11-19T19:19:35.110Z,8.23
2022-11-19T19:22:02.471Z,9.73
2022-11-19T19:24:29.440Z,8.57
2022-11-19T19:26:56.098Z,9.93
2022-11-19T19:29:22.939Z,9.20
2022-11-19T19:31:53.749Z,10.90
2022-11-19T19:34:20.559Z,9.60
2022-11-19T19:36:52.714Z,7.23
2022-11-19T19:39:20.339Z,11.60
2022-11-19T19:41:49.591Z,9.20
2022-11-19T19:44:16.520Z,9.47
2022-11-19T19:46:46.639Z,10.70
2022-11-19T19:49:13.461Z,10.43
2022-11-19T19:51:49.293Z,10.20
2022-11-19T19:54:16.280Z,10.33
2022-11-19T19:56:46.142Z,10.80
2022-11-19T19:59:20.685Z,9.93
2022-11-19T20:01:47.810Z,9.73
2022-11-19T20:04:14.620Z,7.80
2022-11-19T20:06:52.494Z,8.47
2022-11-19T20:09:19.239Z,11.13
2022-11-19T20:11:45.955Z,10.57
2022-11-19T20:14:20.130Z,7.80
2022-11-19T20:16:47.151Z,10.20
2022-11-19T20:19:16.271Z,9.57
2022-11-19T20:21:52.318Z,8.47
2022-11-19T20:24:20.083Z,10.10
2022-11-19T20:26:46.764Z,9.53
2022-11-19T20:29:22.001Z,10.27
2022-11-19T20:31:50.097Z,10.40
2022-11-19T20:34:17.100Z,8.67
2022-11-19T20:36:44.242Z,13.73
2022-11-19T20:39:13.558Z,12.07
2022-11-19T20:42:01.711Z,10.50
2022-11-19T20:44:28.481Z,15.93
2022-11-19T20:47:00.239Z,11.10
2022-11-19T20:49:29.163Z,9.53
2022-11-19T20:51:56.302Z,10.00
2022-11-19T20:54:24.154Z,9.83
2022-11-19T20:56:51.583Z,9.67
2022-11-19T20:59:28.761Z,8.47
2022-11-19T21:01:56.480Z,9.80
2022-11-19T21:04:25.024Z,10.87
2022-11-19T21:07:00.963Z,10.63
2022-11-19T21:09:27.777Z,11.37
2022-11-19T21:11:54.457Z,9.43
2022-11-19T21:14:29.942Z,7.77
2022-11-19T21:16:56.607Z,9.23
2022-11-19T21:19:23.679Z,8.63
2022-11-19T21:21:50.600Z,10.33
2022-11-19T21:24:17.310Z,7.10
2022-11-19T21:26:47.577Z,9.60
2022-11-19T21:29:14.377Z,9.70
2022-11-19T21:31:48.401Z,8.53
2022-11-19T21:34:20.630Z,8.60
2022-11-19T21:36:48.443Z,10.50
2022-11-19T21:39:16.645Z,11.77
2022-11-19T21:41:50.990Z,10.73
2022-11-19T21:44:21.480Z,10.90
2022-11-19T21:46:48.855Z,9.57
2022-11-19T21:49:19.054Z,8.20
2022-11-19T21:51:46.283Z,11.00
2022-11-19T21:54:13.216Z,10.87
2022-11-19T21:56:52.032Z,10.80
2022-11-19T21:59:18.888Z,9.70
2022-11-19T22:01:54.391Z,10.13
2022-11-19T22:04:21.902Z,7.63
2022-11-19T22:06:48.841Z,7.87
2022-11-19T22:09:15.726Z,7.67
2022-11-19T22:11:42.422Z,6.40
2022-11-19T22:14:16.611Z,12.93
2022-11-19T22:16:46.545Z,11.50
2022-11-19T22:19:13.901Z,9.57
2022-11-19T22:21:43.610Z,9.77
2022-11-19T22:24:14.307Z,9.10
2022-11-19T22:26:43.548Z,10.33
2022-11-19T22:29:13.319Z,10.43
2022-11-19T22:31:46.735Z,11.27
2022-11-19T22:34:13.736Z,10.50
2022-11-19T22:36:43.733Z,10.03
2022-11-19T22:39:36.220Z,10.57
2022-11-19T22:42:03.627Z,11.87
2022-11-19T22:44:30.275Z,12.97
2022-11-19T22:46:58.636Z,12.30
2022-11-19T22:49:33.142Z,10.67
2022-11-19T22:51:59.913Z,11.40
2022-11-19T22:54:26.657Z,12.70
2022-11-19T22:56:58.923Z,11.70
2022-11-19T22:59:25.688Z,11.47
2022-11-19T23:01:52.475Z,12.30
2022-11-19T23:04:19.136Z,13.47
2022-11-19T23:06:45.775Z,14.33
2022-11-19T23:09:15.780Z,10.50
2022-11-19T23:12:01.332Z,9.00
2022-11-19T23:14:30.046Z,9.90
2022-11-19T23:16:56.795Z,7.60
2022-11-19T23:19:30.556Z,7.70
2022-11-19T23:21:57.215Z,9.00
2022-11-19T23:24:24.027Z,12.53
2022-11-19T23:26:50.947Z,11.97
2022-11-19T23:29:17.735Z,15.40
2022-11-19T23:31:51.897Z,17.10
2022-11-19T23:34:18.679Z,17.43
2022-11-19T23:36:46.965Z,17.53
2022-11-19T23:39:22.991Z,13.20
2022-11-19T23:41:50.062Z,14.30
2022-11-19T23:44:19.975Z,14.50
2022-11-19T23:46:49.197Z,11.53
2022-11-19T23:49:16.208Z,12.60
2022-11-19T23:51:43.278Z,9.80
2022-11-19T23:54:12.010Z,8.60
2022-11-19T23:56:46.253Z,8.03
2022-11-19T23:59:13.045Z,8.43
